createdAt,value
2019-03-11T00:00:28.603Z,0.40
2019-03-11T00:02:57.292Z,0.20
2019-03-11T00:05:25.858Z,0.23
2019-03-11T00:07:54.356Z,0.20
2019-03-11T00:10:22.802Z,0.40
2019-03-11T00:12:51.458Z,0.20
2019-03-11T00:15:20.061Z,0.30
2019-03-11T00:17:49.709Z,0.73
2019-03-11T00:20:18.257Z,0.33
2019-03-11T00:22:46.824Z,0.53
2019-03-11T00:25:15.443Z,0.30
2019-03-11T00:27:44.063Z,0.30
2019-03-11T00:30:12.610Z,0.30
2019-03-11T00:32:41.254Z,0.50
2019-03-11T00:35:09.840Z,0.40
2019-03-11T00:37:38.407Z,0.43
2019-03-11T00:40:07.266Z,0.30
2019-03-11T00:42:35.857Z,0.40
2019-03-11T00:45:04.769Z,0.40
2019-03-11T00:47:33.299Z,0.30
2019-03-11T00:50:01.841Z,0.43
2019-03-11T00:52:30.389Z,0.60
2019-03-11T00:54:59.032Z,0.57
2019-03-11T00:57:27.627Z,0.53
2019-03-11T00:59:56.108Z,0.50
2019-03-11T01:02:24.756Z,0.60
2019-03-11T01:04:53.307Z,0.70
2019-03-11T01:07:21.834Z,0.50
2019-03-11T01:09:50.286Z,0.70
2019-03-11T01:12:18.862Z,0.70
2019-03-11T01:14:47.522Z,0.40
2019-03-11T01:17:16.102Z,0.37
2019-03-11T01:19:44.682Z,0.50
2019-03-11T01:22:13.325Z,0.70
2019-03-11T01:24:41.848Z,0.47
2019-03-11T01:27:10.365Z,0.50
2019-03-11T01:29:38.943Z,0.50
2019-03-11T01:32:07.491Z,0.50
2019-03-11T01:34:36.011Z,0.53
2019-03-11T01:37:04.678Z,0.50
2019-03-11T01:39:33.188Z,0.40
2019-03-11T01:42:01.878Z,0.50
2019-03-11T01:44:30.490Z,0.60
2019-03-11T01:46:58.969Z,0.70
2019-03-11T01:49:27.494Z,0.70
2019-03-11T01:51:56.478Z,0.63
2019-03-11T01:54:25.029Z,0.67
2019-03-11T01:56:53.634Z,0.67
2019-03-11T01:59:22.109Z,0.60
2019-03-11T02:01:50.629Z,0.77
2019-03-11T02:04:19.206Z,0.60
2019-03-11T02:06:47.926Z,0.70
2019-03-11T02:09:16.489Z,0.50
2019-03-11T02:11:45.087Z,0.67
2019-03-11T02:14:13.587Z,1.43
2019-03-11T02:16:42.141Z,0.67
2019-03-11T02:19:10.588Z,0.53
2019-03-11T02:21:39.074Z,0.50
2019-03-11T02:24:07.532Z,0.77
2019-03-11T02:26:36.287Z,0.73
2019-03-11T02:29:04.838Z,0.60
2019-03-11T02:31:33.360Z,1.20
2019-03-11T02:34:01.817Z,0.60
2019-03-11T02:36:30.421Z,0.90
2019-03-11T02:38:58.998Z,0.70
2019-03-11T02:41:27.585Z,0.90
2019-03-11T02:43:56.112Z,0.80
2019-03-11T02:46:24.710Z,1.00
2019-03-11T02:48:53.690Z,0.60
2019-03-11T02:51:22.294Z,0.67
2019-03-11T02:53:50.806Z,1.40
2019-03-11T02:56:19.276Z,1.70
2019-03-11T02:58:47.734Z,0.90
2019-03-11T03:01:35.387Z,0.87
2019-03-11T03:04:07.801Z,0.70
2019-03-11T03:06:36.413Z,1.30
2019-03-11T03:09:07.831Z,0.83
2019-03-11T03:11:36.275Z,1.30
2019-03-11T03:14:04.751Z,1.10
2019-03-11T03:16:33.362Z,0.80
2019-03-11T03:19:01.957Z,0.70
2019-03-11T03:21:30.655Z,0.80
2019-03-11T03:23:59.229Z,1.13
2019-03-11T03:26:27.736Z,1.07
2019-03-11T03:28:56.254Z,0.93
2019-03-11T03:31:24.688Z,1.20
2019-03-11T03:33:53.234Z,1.20
2019-03-11T03:36:21.784Z,1.30
2019-03-11T03:38:50.313Z,0.80
2019-03-11T03:41:18.972Z,1.27
2019-03-11T03:43:47.635Z,1.27
2019-03-11T03:46:19.069Z,0.80
2019-03-11T03:48:46.549Z,1.43
2019-03-11T03:51:15.216Z,0.90
2019-03-11T03:53:43.663Z,1.20
2019-03-11T03:56:12.279Z,1.00
2019-03-11T03:58:40.775Z,0.80
2019-03-11T04:01:10.304Z,1.50
2019-03-11T04:03:38.822Z,1.20
2019-03-11T04:06:07.366Z,1.10
2019-03-11T04:08:36.017Z,1.27
2019-03-11T04:11:04.662Z,1.23
2019-03-11T04:13:33.191Z,1.40
2019-03-11T04:16:01.856Z,1.27
2019-03-11T04:18:49.197Z,1.40
2019-03-11T04:21:17.757Z,1.10
2019-03-11T04:23:46.326Z,1.30
2019-03-11T04:26:15.038Z,1.37
2019-03-11T04:28:43.978Z,1.40
2019-03-11T04:31:12.413Z,1.63
2019-03-11T04:33:40.905Z,1.33
2019-03-11T04:36:09.379Z,0.90
2019-03-11T04:38:37.942Z,1.20
2019-03-11T04:41:06.558Z,1.43
2019-03-11T04:43:35.221Z,1.37
2019-03-11T04:46:03.743Z,1.30
2019-03-11T04:48:32.221Z,1.87
2019-03-11T04:51:00.713Z,1.30
2019-03-11T04:53:29.304Z,1.60
2019-03-11T04:55:57.948Z,1.87
2019-03-11T04:58:26.481Z,1.93
2019-03-11T05:00:54.981Z,1.23
2019-03-11T05:03:23.521Z,1.20
2019-03-11T05:05:52.190Z,1.50
2019-03-11T05:08:20.739Z,1.30
2019-03-11T05:10:49.342Z,1.10
2019-03-11T05:13:17.845Z,1.80
2019-03-11T05:15:46.546Z,1.30
2019-03-11T05:18:16.306Z,1.30
2019-03-11T05:20:44.888Z,1.17
2019-03-11T05:23:13.321Z,1.30
2019-03-11T05:25:41.918Z,1.63
2019-03-11T05:28:10.384Z,1.27
2019-03-11T05:30:38.935Z,1.40
2019-03-11T05:33:07.506Z,1.17
2019-03-11T05:35:36.014Z,1.37
2019-03-11T05:38:04.582Z,1.40
2019-03-11T05:40:33.048Z,1.33
2019-03-11T05:43:01.591Z,1.20
2019-03-11T05:45:30.261Z,1.10
2019-03-11T05:47:58.937Z,0.93
2019-03-11T05:50:27.473Z,1.30
2019-03-11T05:52:55.929Z,1.83
2019-03-11T05:55:24.511Z,1.43
2019-03-11T05:57:53.088Z,1.50
2019-03-11T06:00:25.665Z,1.30
2019-03-11T06:02:54.735Z,1.90
2019-03-11T06:05:23.358Z,1.83
2019-03-11T06:07:51.902Z,1.63
2019-03-11T06:10:20.357Z,1.10
2019-03-11T06:12:50.702Z,1.50
2019-03-11T06:15:21.897Z,1.43
2019-03-11T06:17:50.825Z,2.27
2019-03-11T06:20:38.684Z,1.67
2019-03-11T06:23:08.735Z,1.40
2019-03-11T06:25:37.198Z,1.57
2019-03-11T06:28:05.833Z,1.40
2019-03-11T06:30:34.486Z,1.30
2019-03-11T06:33:03.107Z,1.27
2019-03-11T06:35:31.546Z,1.73
2019-03-11T06:38:00.087Z,1.60
2019-03-11T06:40:28.711Z,1.30
2019-03-11T06:42:57.398Z,1.23
2019-03-11T06:45:26.053Z,1.80
2019-03-11T06:47:54.622Z,1.30
2019-03-11T06:50:23.207Z,1.67
2019-03-11T06:52:53.849Z,2.47
2019-03-11T06:55:22.375Z,2.07
2019-03-11T06:57:51.014Z,1.63
2019-03-11T07:00:19.569Z,1.53
2019-03-11T07:02:48.113Z,1.50
2019-03-11T07:05:20.484Z,2.17
2019-03-11T07:07:46.928Z,1.87
2019-03-11T07:10:15.456Z,1.77
2019-03-11T07:12:43.991Z,1.87
2019-03-11T07:15:12.527Z,1.77
2019-03-11T07:17:41.045Z,1.50
2019-03-11T07:20:10.321Z,1.77
2019-03-11T07:22:39.015Z,1.67
2019-03-11T07:25:08.221Z,1.60
2019-03-11T07:27:36.690Z,1.60
2019-03-11T07:30:05.734Z,1.77
2019-03-11T07:32:34.339Z,1.47
2019-03-11T07:35:08.525Z,2.07
2019-03-11T07:37:33.142Z,1.23
2019-03-11T07:40:29.650Z,1.70
2019-03-11T07:42:50.993Z,1.40
2019-03-11T07:45:19.584Z,1.87
2019-03-11T07:47:48.011Z,1.50
2019-03-11T07:50:16.537Z,1.70
2019-03-11T07:52:45.095Z,0.80
2019-03-11T07:55:13.946Z,0.40
2019-03-11T07:57:42.474Z,0.27
2019-03-11T08:00:11.203Z,0.07
2019-03-11T08:02:39.726Z,0.10
2019-03-11T08:05:08.475Z,0.13
2019-03-11T08:07:36.904Z,0.27
2019-03-11T08:10:05.581Z,0.20
2019-03-11T08:12:34.033Z,0.20
2019-03-11T08:15:02.567Z,0.10
2019-03-11T08:17:31.145Z,0.20
2019-03-11T08:19:59.625Z,0.20
2019-03-11T08:22:28.230Z,0.40
2019-03-11T08:24:56.729Z,0.37
2019-03-11T08:27:25.173Z,0.17
2019-03-11T08:29:53.788Z,0.30
2019-03-11T08:32:22.209Z,0.43
2019-03-11T08:34:50.690Z,0.30
2019-03-11T08:37:19.138Z,0.70
2019-03-11T08:39:47.558Z,0.50
2019-03-11T08:42:16.126Z,0.50
2019-03-11T08:44:44.629Z,0.60
2019-03-11T08:47:13.149Z,0.50
2019-03-11T08:49:41.593Z,0.60
2019-03-11T08:52:10.041Z,0.67
2019-03-11T08:54:38.558Z,0.67
2019-03-11T08:57:07.089Z,0.80
2019-03-11T08:59:37.569Z,0.70
2019-03-11T09:02:06.133Z,0.53
2019-03-11T09:04:34.891Z,0.70
2019-03-11T09:07:03.415Z,0.50
2019-03-11T09:09:32.013Z,0.83
2019-03-11T09:12:00.549Z,0.67
2019-03-11T09:14:29.074Z,0.87
2019-03-11T09:16:57.706Z,0.60
2019-03-11T09:19:26.278Z,0.70
2019-03-11T09:21:55.978Z,0.70
2019-03-11T09:24:24.667Z,0.70
2019-03-11T09:26:53.266Z,0.60
2019-03-11T09:29:21.809Z,0.73
2019-03-11T09:31:50.427Z,0.67
2019-03-11T09:34:18.866Z,0.83
2019-03-11T09:36:47.320Z,0.37
2019-03-11T09:39:15.785Z,0.30
2019-03-11T09:41:44.369Z,0.20
2019-03-11T09:44:12.872Z,0.20
2019-03-11T09:46:41.487Z,0.20
2019-03-11T09:49:10.050Z,0.37
2019-03-11T09:51:38.645Z,0.40
2019-03-11T09:54:07.306Z,0.30
2019-03-11T09:56:43.124Z,0.50
2019-03-11T09:59:09.349Z,0.40
2019-03-11T10:01:38.093Z,0.80
2019-03-11T10:04:07.882Z,0.70
2019-03-11T10:06:36.490Z,0.70
2019-03-11T10:09:05.937Z,1.00
2019-03-11T10:11:34.450Z,1.00
2019-03-11T10:14:03.099Z,0.80
2019-03-11T10:16:31.710Z,0.93
2019-03-11T10:19:00.354Z,1.10
2019-03-11T10:21:29.054Z,0.60
2019-03-11T10:23:59.331Z,0.80
2019-03-11T10:28:55.955Z,1.20
2019-03-11T10:31:26.728Z,1.30
2019-03-11T10:33:55.274Z,0.70
2019-03-11T10:36:23.833Z,0.70
2019-03-11T10:38:52.457Z,0.83
2019-03-11T10:41:21.066Z,0.83
2019-03-11T10:43:49.648Z,1.23
2019-03-11T10:46:18.142Z,0.87
2019-03-11T10:48:46.677Z,0.87
2019-03-11T10:51:15.309Z,0.77
2019-03-11T10:53:43.790Z,1.13
2019-03-11T10:56:12.292Z,1.07
2019-03-11T10:58:40.803Z,1.10
2019-03-11T11:01:09.858Z,1.17
2019-03-11T11:03:38.582Z,0.90
2019-03-11T11:06:07.108Z,0.93
2019-03-11T11:08:35.633Z,0.90
2019-03-11T11:11:04.301Z,0.70
2019-03-11T11:13:32.846Z,0.60
2019-03-11T11:16:01.324Z,0.80
2019-03-11T11:18:29.813Z,0.70
2019-03-11T11:20:58.457Z,1.17
2019-03-11T11:23:26.969Z,0.90
2019-03-11T11:25:55.506Z,0.80
2019-03-11T11:28:24.119Z,0.90
2019-03-11T11:30:52.652Z,0.80
2019-03-11T11:33:21.295Z,0.73
2019-03-11T11:35:49.841Z,0.70
2019-03-11T11:38:18.459Z,0.57
2019-03-11T11:40:47.150Z,0.80
2019-03-11T11:43:15.785Z,1.53
2019-03-11T11:45:44.465Z,0.77
2019-03-11T11:48:14.035Z,0.80
2019-03-11T11:50:42.577Z,0.77
2019-03-11T11:53:13.118Z,0.70
2019-03-11T11:55:41.641Z,0.77
2019-03-11T11:58:10.241Z,0.50
2019-03-11T12:00:39.840Z,0.73
2019-03-11T12:03:08.381Z,0.40
2019-03-11T12:05:36.962Z,0.70
2019-03-11T12:08:05.645Z,0.80
2019-03-11T12:10:34.142Z,0.93
2019-03-11T12:13:02.962Z,1.20
2019-03-11T12:15:31.576Z,1.00
2019-03-11T12:18:00.292Z,1.00
2019-03-11T12:20:31.014Z,1.03
2019-03-11T12:22:59.876Z,1.03
2019-03-11T12:25:28.838Z,1.07
2019-03-11T12:27:58.301Z,1.30
2019-03-11T12:30:27.164Z,1.40
2019-03-11T12:32:55.765Z,0.83
2019-03-11T12:35:24.643Z,1.20
2019-03-11T12:37:53.651Z,1.03
2019-03-11T12:40:22.249Z,1.20
2019-03-11T12:42:50.870Z,1.10
2019-03-11T12:45:19.595Z,1.20
2019-03-11T12:47:48.394Z,1.10
2019-03-11T12:50:18.433Z,1.20
2019-03-11T12:52:46.963Z,0.60
2019-03-11T12:55:15.485Z,0.50
2019-03-11T12:57:44.191Z,0.60
2019-03-11T13:00:13.900Z,0.50
2019-03-11T13:02:42.457Z,0.30
2019-03-11T13:05:11.098Z,0.40
2019-03-11T13:07:39.649Z,0.50
2019-03-11T13:10:08.910Z,0.40
2019-03-11T13:12:41.508Z,0.30
2019-03-11T13:15:10.221Z,0.47
2019-03-11T13:17:39.912Z,0.30
2019-03-11T13:20:09.770Z,0.50
2019-03-11T13:22:38.316Z,0.60
2019-03-11T13:25:07.266Z,0.40
2019-03-11T13:27:35.834Z,0.40
2019-03-11T13:30:05.069Z,0.30
2019-03-11T13:32:33.489Z,0.20
2019-03-11T13:35:02.182Z,0.33
2019-03-11T13:37:30.694Z,0.50
2019-03-11T13:39:59.202Z,0.37
2019-03-11T13:42:28.777Z,0.30
2019-03-11T13:44:57.277Z,0.40
2019-03-11T13:47:25.722Z,0.40
2019-03-11T13:49:55.251Z,0.60
2019-03-11T13:52:23.773Z,0.23
2019-03-11T13:54:52.313Z,0.60
2019-03-11T13:57:23.077Z,0.20
2019-03-11T13:59:51.576Z,0.20
2019-03-11T14:02:20.018Z,0.10
2019-03-11T14:04:48.539Z,0.37
2019-03-11T14:07:17.145Z,0.30
2019-03-11T14:09:45.710Z,0.53
2019-03-11T14:12:23.178Z,0.47
2019-03-11T14:14:51.783Z,0.40
2019-03-11T14:17:20.251Z,0.40
2019-03-11T14:19:48.802Z,0.87
2019-03-11T14:22:17.365Z,0.33
2019-03-11T14:24:45.870Z,0.40
2019-03-11T14:27:14.439Z,0.30
2019-03-11T14:29:43.001Z,0.60
2019-03-11T14:32:12.888Z,0.20
2019-03-11T14:34:41.823Z,0.33
2019-03-11T14:37:10.313Z,0.40
2019-03-11T14:39:38.802Z,0.37
2019-03-11T14:42:07.489Z,0.40
2019-03-11T14:44:36.158Z,0.40
2019-03-11T14:47:04.703Z,0.57
2019-03-11T14:49:33.797Z,0.80
2019-03-11T14:52:03.945Z,0.90
2019-03-11T14:54:32.463Z,0.50
2019-03-11T14:57:03.159Z,0.30
2019-03-11T14:59:32.130Z,0.37
2019-03-11T15:02:01.510Z,0.27
2019-03-11T15:04:30.054Z,0.30
2019-03-11T15:06:58.574Z,0.40
2019-03-11T15:09:27.137Z,0.20
2019-03-11T15:11:55.669Z,0.30
2019-03-11T15:14:24.308Z,0.47
2019-03-11T15:16:53.768Z,0.20
2019-03-11T15:19:22.331Z,0.30
2019-03-11T15:21:50.917Z,0.10
2019-03-11T15:24:19.537Z,0.30
2019-03-11T15:26:48.267Z,0.20
2019-03-11T15:29:17.077Z,0.50
2019-03-11T15:31:45.719Z,0.47
2019-03-11T15:34:14.299Z,0.20
2019-03-11T15:36:44.205Z,0.30
2019-03-11T15:39:12.747Z,1.27
2019-03-11T15:41:41.385Z,0.10
2019-03-11T15:44:09.937Z,0.43
2019-03-11T15:46:39.567Z,0.30
2019-03-11T15:49:08.334Z,0.60
2019-03-11T15:51:37.148Z,0.93
2019-03-11T15:54:05.926Z,0.50
2019-03-11T15:56:34.515Z,0.50
2019-03-11T15:59:03.082Z,0.37
2019-03-11T16:01:31.678Z,0.60
2019-03-11T16:04:00.149Z,0.50
2019-03-11T16:06:28.867Z,0.40
2019-03-11T16:08:57.372Z,0.60
2019-03-11T16:11:25.814Z,0.73
2019-03-11T16:13:54.454Z,0.60
2019-03-11T16:16:23.103Z,0.40
2019-03-11T16:18:51.802Z,0.57
2019-03-11T16:21:21.381Z,0.60
2019-03-11T16:23:50.098Z,0.63
2019-03-11T16:26:18.751Z,0.60
2019-03-11T16:28:48.567Z,0.47
2019-03-11T16:31:17.246Z,0.50
2019-03-11T16:33:45.847Z,0.60
2019-03-11T16:36:14.656Z,0.60
2019-03-11T16:38:43.466Z,0.60
2019-03-11T16:41:13.091Z,0.63
2019-03-11T16:43:41.796Z,0.80
2019-03-11T16:46:10.382Z,0.70
2019-03-11T16:48:40.015Z,0.90
2019-03-11T16:51:08.684Z,1.10
2019-03-11T16:53:37.251Z,1.27
2019-03-11T16:56:05.898Z,1.23
2019-03-11T16:58:34.503Z,1.43
2019-03-11T17:01:05.162Z,1.23
2019-03-11T17:03:33.752Z,1.47
2019-03-11T17:06:04.498Z,1.20
2019-03-11T17:08:33.029Z,1.20
2019-03-11T17:11:01.760Z,1.37
2019-03-11T17:13:30.271Z,1.20
2019-03-11T17:15:58.894Z,1.40
2019-03-11T17:18:27.539Z,1.27
2019-03-11T17:20:56.139Z,1.67
2019-03-11T17:23:24.714Z,1.53
2019-03-11T17:25:53.186Z,1.23
2019-03-11T17:28:21.768Z,1.60
2019-03-11T17:30:50.334Z,2.40
2019-03-11T17:33:18.874Z,1.60
2019-03-11T17:35:47.576Z,1.53
2019-03-11T17:38:16.318Z,1.73
2019-03-11T17:40:44.933Z,1.43
2019-03-11T17:43:13.538Z,1.53
2019-03-11T17:45:49.477Z,1.93
2019-03-11T17:48:18.844Z,1.10
2019-03-11T17:50:47.761Z,1.30
2019-03-11T17:53:20.116Z,1.10
2019-03-11T17:55:46.645Z,1.47
2019-03-11T17:58:15.311Z,1.33
2019-03-11T18:00:54.810Z,1.10
2019-03-11T18:03:14.537Z,1.10
2019-03-11T18:05:44.186Z,1.00
2019-03-11T18:08:12.696Z,1.70
2019-03-11T18:10:41.334Z,1.80
2019-03-11T18:13:11.057Z,1.20
2019-03-11T18:15:41.765Z,1.07
2019-03-11T18:18:10.486Z,1.40
2019-03-11T18:20:39.310Z,1.53
2019-03-11T18:23:08.255Z,1.40
2019-03-11T18:25:36.817Z,1.17
2019-03-11T18:28:05.597Z,1.23
2019-03-11T18:30:34.537Z,1.20
2019-03-11T18:33:03.170Z,1.10
2019-03-11T18:35:34.031Z,1.03
2019-03-11T18:38:04.588Z,0.87
2019-03-11T18:40:33.414Z,0.90
2019-03-11T18:43:02.101Z,0.50
2019-03-11T18:45:31.893Z,0.83
2019-03-11T18:48:00.589Z,0.80
2019-03-11T18:50:29.327Z,0.97
2019-03-11T18:52:58.064Z,1.20
2019-03-11T18:55:26.781Z,0.97
2019-03-11T18:57:55.445Z,0.90
2019-03-11T19:00:23.999Z,0.80
2019-03-11T19:02:52.661Z,1.07
2019-03-11T19:05:21.233Z,1.30
2019-03-11T19:07:49.799Z,1.00
2019-03-11T19:10:18.532Z,1.00
2019-03-11T19:12:47.254Z,1.40
2019-03-11T19:15:15.982Z,0.90
2019-03-11T19:17:44.724Z,0.87
2019-03-11T19:20:15.519Z,0.90
2019-03-11T19:22:45.421Z,0.87
2019-03-11T19:25:14.220Z,0.97
2019-03-11T19:27:42.734Z,1.10
2019-03-11T19:30:12.765Z,0.83
2019-03-11T19:32:41.402Z,1.30
2019-03-11T19:35:10.048Z,1.03
2019-03-11T19:37:38.641Z,0.70
2019-03-11T19:40:08.552Z,0.97
2019-03-11T19:42:37.324Z,0.80
2019-03-11T19:45:08.445Z,0.97
2019-03-11T19:47:37.235Z,1.23
2019-03-11T19:50:07.214Z,0.80
2019-03-11T19:52:36.097Z,0.90
2019-03-11T19:55:04.748Z,0.90
2019-03-11T19:57:33.476Z,0.80
2019-03-11T20:00:02.493Z,1.00
2019-03-11T20:02:31.095Z,1.10
2019-03-11T20:04:59.666Z,1.10
2019-03-11T20:07:30.462Z,1.10
2019-03-11T20:09:59.265Z,0.70
2019-03-11T20:12:27.858Z,0.80
2019-03-11T20:14:56.452Z,0.90
2019-03-11T20:17:25.158Z,0.60
2019-03-11T20:19:54.162Z,0.97
2019-03-11T20:22:22.678Z,0.90
2019-03-11T20:24:51.346Z,1.10
2019-03-11T20:27:20.204Z,0.57
2019-03-11T20:29:48.931Z,0.80
2019-03-11T20:32:17.546Z,0.70
2019-03-11T20:34:46.196Z,0.70
2019-03-11T20:37:14.962Z,0.90
2019-03-11T20:39:45.528Z,0.70
2019-03-11T20:42:14.001Z,0.93
2019-03-11T20:44:42.599Z,0.83
2019-03-11T20:47:11.366Z,0.70
2019-03-11T20:49:40.019Z,0.80
2019-03-11T20:52:08.945Z,0.90
2019-03-11T20:54:38.539Z,0.90
2019-03-11T20:57:07.313Z,1.00
2019-03-11T20:59:36.814Z,0.67
2019-03-11T21:02:05.637Z,1.03
2019-03-11T21:04:34.361Z,0.70
2019-03-11T21:07:03.325Z,1.10
2019-03-11T21:09:34.043Z,0.80
2019-03-11T21:12:02.736Z,0.60
2019-03-11T21:14:31.368Z,0.87
2019-03-11T21:17:00.306Z,1.00
2019-03-11T21:19:29.195Z,1.00
2019-03-11T21:21:57.832Z,0.80
2019-03-11T21:24:26.710Z,1.20
2019-03-11T21:26:55.415Z,0.97
2019-03-11T21:29:25.460Z,1.00
2019-03-11T21:31:54.279Z,1.10
2019-03-11T21:34:23.067Z,0.80
2019-03-11T21:36:55.733Z,1.00
2019-03-11T21:39:26.423Z,1.00
2019-03-11T21:41:55.225Z,1.10
2019-03-11T21:44:24.161Z,0.80
2019-03-11T21:46:53.041Z,1.07
2019-03-11T21:49:21.600Z,0.70
2019-03-11T21:51:50.207Z,1.07
2019-03-11T21:54:18.789Z,0.90
2019-03-11T21:56:47.419Z,1.00
2019-03-11T21:59:16.058Z,0.70
2019-03-11T22:01:44.806Z,0.87
2019-03-11T22:04:13.414Z,0.93
2019-03-11T22:06:41.965Z,1.10
2019-03-11T22:09:11.175Z,0.97
2019-03-11T22:11:39.816Z,1.13
2019-03-11T22:14:08.346Z,1.23
2019-03-11T22:16:36.881Z,1.00
2019-03-11T22:19:05.490Z,1.00
2019-03-11T22:21:33.957Z,0.90
2019-03-11T22:24:02.516Z,1.10
2019-03-11T22:26:31.126Z,1.17
2019-03-11T22:28:59.721Z,1.43
2019-03-11T22:31:28.478Z,0.83
2019-03-11T22:33:56.994Z,1.00
2019-03-11T22:36:25.661Z,1.10
2019-03-11T22:38:54.316Z,1.03
2019-03-11T22:41:22.918Z,1.43
2019-03-11T22:43:51.563Z,1.40
2019-03-11T22:46:20.150Z,1.27
2019-03-11T22:48:48.871Z,1.30
2019-03-11T22:51:17.478Z,1.10
2019-03-11T22:53:46.018Z,1.23
2019-03-11T22:56:14.540Z,1.10
2019-03-11T22:58:43.053Z,1.30
2019-03-11T23:01:11.761Z,1.90
2019-03-11T23:03:40.375Z,1.90
2019-03-11T23:06:08.923Z,1.93
2019-03-11T23:08:37.535Z,1.97
2019-03-11T23:11:05.980Z,1.97
2019-03-11T23:13:36.406Z,1.80
2019-03-11T23:16:04.913Z,2.27
2019-03-11T23:18:33.623Z,2.30
2019-03-11T23:21:02.161Z,2.00
2019-03-11T23:23:30.894Z,2.20
2019-03-11T23:25:59.342Z,2.60
2019-03-11T23:28:27.870Z,2.60
2019-03-11T23:30:56.441Z,2.80
2019-03-11T23:33:24.998Z,2.93
2019-03-11T23:35:54.001Z,2.57
2019-03-11T23:38:22.585Z,3.40
2019-03-11T23:40:51.165Z,2.90
2019-03-11T23:43:19.724Z,2.97
2019-03-11T23:45:48.302Z,2.77
2019-03-11T23:48:16.769Z,3.00
2019-03-11T23:50:45.205Z,3.40
2019-03-11T23:53:13.665Z,3.20
2019-03-11T23:55:42.189Z,3.03
2019-03-11T23:58:10.651Z,3.60
